createdAt,value
2022-12-08T00:01:25.516Z,-0.28
2022-12-08T00:03:52.613Z,-0.32
2022-12-08T00:06:50.595Z,-0.37
2022-12-08T00:09:22.980Z,-0.34
2022-12-08T00:12:07.368Z,-0.32
2022-12-08T00:14:42.885Z,-0.32
2022-12-08T00:17:14.753Z,-0.33
2022-12-08T00:19:41.896Z,-0.35
2022-12-08T00:22:10.578Z,-0.36
2022-12-08T00:24:39.922Z,-0.39
2022-12-08T00:27:08.473Z,-0.41
2022-12-08T00:29:35.177Z,-0.40
2022-12-08T00:32:03.583Z,-0.40
2022-12-08T00:34:31.869Z,-0.45
2022-12-08T00:36:58.684Z,-0.52
2022-12-08T00:39:27.441Z,-0.58
2022-12-08T00:42:12.079Z,-0.54
2022-12-08T00:44:44.446Z,-0.57
2022-12-08T00:47:12.197Z,-0.61
2022-12-08T00:49:39.128Z,-0.63
2022-12-08T00:52:10.293Z,-0.64
2022-12-08T00:54:37.004Z,-0.62
2022-12-08T00:57:03.678Z,-0.61
2022-12-08T00:59:32.341Z,-0.61
2022-12-08T01:01:58.945Z,-0.60
2022-12-08T01:04:27.692Z,-0.58
2022-12-08T01:06:56.339Z,-0.52
2022-12-08T01:09:23.034Z,-0.52
2022-12-08T01:11:49.614Z,-0.53
2022-12-08T01:14:16.499Z,-0.54
2022-12-08T01:16:43.395Z,-0.55
2022-12-08T01:19:12.835Z,-0.56
2022-12-08T01:21:42.518Z,-0.56
2022-12-08T01:24:15.953Z,-0.56
2022-12-08T01:26:42.439Z,-0.55
2022-12-08T01:29:14.524Z,-0.54
2022-12-08T01:31:41.076Z,-0.54
2022-12-08T01:34:08.631Z,-0.49
2022-12-08T01:36:41.278Z,-0.49
2022-12-08T01:39:14.153Z,-0.49
2022-12-08T01:41:40.737Z,-0.47
2022-12-08T01:44:11.087Z,-0.45
2022-12-08T01:46:45.463Z,-0.43
2022-12-08T01:49:18.619Z,-0.43
2022-12-08T01:52:04.953Z,-0.42
2022-12-08T01:54:39.177Z,-0.44
2022-12-08T01:57:10.237Z,-0.42
2022-12-08T01:59:42.344Z,-0.40
2022-12-08T02:02:10.660Z,-0.36
2022-12-08T02:04:37.688Z,-0.31
2022-12-08T02:07:08.349Z,-0.36
2022-12-08T02:09:36.616Z,-0.37
2022-12-08T02:12:05.210Z,-0.35
2022-12-08T02:14:32.520Z,-0.38
2022-12-08T02:17:16.003Z,-0.40
2022-12-08T02:20:19.409Z,-0.46
2022-12-08T02:22:53.906Z,-0.51
2022-12-08T02:25:40.141Z,-0.59
2022-12-08T02:28:12.552Z,-0.66
2022-12-08T02:31:10.153Z,-0.76
2022-12-08T02:33:48.716Z,-0.85
2022-12-08T02:36:25.530Z,-0.97
2022-12-08T02:39:11.508Z,-1.03
2022-12-08T02:41:47.967Z,-1.06
2022-12-08T02:44:24.469Z,-1.15
2022-12-08T02:47:08.586Z,-1.21
2022-12-08T02:49:35.937Z,-1.39
2022-12-08T02:52:29.422Z,-1.51
2022-12-08T02:55:05.716Z,-1.56
2022-12-08T02:57:38.373Z,-1.68
2022-12-08T03:00:14.025Z,-1.74
2022-12-08T03:03:01.131Z,-1.74
2022-12-08T03:05:53.237Z,-1.79
2022-12-08T03:08:34.395Z,-1.95
2022-12-08T03:11:14.399Z,-2.02
2022-12-08T03:13:51.686Z,-2.05
2022-12-08T03:16:24.706Z,-2.11
2022-12-08T03:19:06.744Z,-2.20
2022-12-08T03:21:36.076Z,-2.30
2022-12-08T03:24:06.677Z,-2.37
2022-12-08T03:26:56.248Z,-2.44
2022-12-08T03:29:23.693Z,-2.48
2022-12-08T03:31:55.948Z,-2.42
2022-12-08T03:34:27.809Z,-2.42
2022-12-08T03:36:54.704Z,-2.46
2022-12-08T03:39:21.569Z,-2.56
2022-12-08T03:41:50.015Z,-2.61
2022-12-08T03:44:16.562Z,-2.68
2022-12-08T03:46:43.081Z,-2.76
2022-12-08T03:49:09.686Z,-2.75
2022-12-08T03:51:36.197Z,-2.67
2022-12-08T03:54:05.073Z,-2.69
2022-12-08T03:56:37.700Z,-2.78
2022-12-08T03:59:05.676Z,-2.78
2022-12-08T04:01:32.430Z,-2.79
2022-12-08T04:04:01.317Z,-2.78
2022-12-08T04:06:28.049Z,-2.82
2022-12-08T04:08:54.632Z,-2.86
2022-12-08T04:11:23.331Z,-2.78
2022-12-08T04:13:49.905Z,-2.88
2022-12-08T04:16:20.200Z,-2.86
2022-12-08T04:18:47.004Z,-2.85
2022-12-08T04:21:13.974Z,-2.85
2022-12-08T04:23:40.614Z,-3.03
2022-12-08T04:26:07.895Z,-2.93
2022-12-08T04:28:34.764Z,-2.91
2022-12-08T04:31:01.528Z,-2.94
2022-12-08T04:33:32.833Z,-2.97
2022-12-08T04:35:59.310Z,-3.02
2022-12-08T04:38:25.835Z,-3.13
2022-12-08T04:40:54.094Z,-3.19
2022-12-08T04:43:20.589Z,-3.24
2022-12-08T04:45:50.835Z,-3.23
2022-12-08T04:48:19.523Z,-3.22
2022-12-08T04:50:46.770Z,-3.25
2022-12-08T04:53:13.885Z,-3.27
2022-12-08T04:55:43.923Z,-3.22
2022-12-08T04:58:15.219Z,-3.20
2022-12-08T05:00:42.002Z,-3.16
2022-12-08T05:03:14.790Z,-3.12
2022-12-08T05:05:42.168Z,-3.18
2022-12-08T05:08:09.622Z,-3.21
2022-12-08T05:10:36.673Z,-3.13
2022-12-08T05:13:03.181Z,-3.17
2022-12-08T05:15:29.826Z,-3.29
2022-12-08T05:17:58.525Z,-3.40
2022-12-08T05:20:25.302Z,-3.46
2022-12-08T05:22:51.844Z,-3.47
2022-12-08T05:25:18.635Z,-3.47
2022-12-08T05:27:46.918Z,-3.48
2022-12-08T05:30:13.598Z,-3.48
2022-12-08T05:32:40.097Z,-3.43
2022-12-08T05:35:07.040Z,-3.38
2022-12-08T05:37:33.754Z,-3.44
2022-12-08T05:40:08.234Z,-3.50
2022-12-08T05:42:34.765Z,-3.46
2022-12-08T05:45:01.274Z,-3.34
2022-12-08T05:47:30.729Z,-3.32
2022-12-08T05:50:01.121Z,-3.38
2022-12-08T05:52:35.916Z,-3.43
2022-12-08T05:55:02.559Z,-3.39
2022-12-08T05:57:29.022Z,-3.32
2022-12-08T05:59:59.347Z,-3.29
2022-12-08T06:02:27.056Z,-3.38
2022-12-08T06:04:58.245Z,-3.41
2022-12-08T06:07:24.876Z,-3.40
2022-12-08T06:09:51.367Z,-3.40
2022-12-08T06:12:17.896Z,-3.40
2022-12-08T06:14:44.673Z,-3.34
2022-12-08T06:17:11.408Z,-3.30
2022-12-08T06:19:37.903Z,-3.39
2022-12-08T06:22:04.352Z,-3.44
2022-12-08T06:24:30.844Z,-3.47
2022-12-08T06:26:57.622Z,-3.45
2022-12-08T06:29:26.393Z,-3.50
2022-12-08T06:31:53.060Z,-3.54
2022-12-08T06:34:19.609Z,-3.58
2022-12-08T06:36:48.398Z,-3.59
2022-12-08T06:39:19.518Z,-3.67
2022-12-08T06:42:04.577Z,-3.70
2022-12-08T06:44:33.063Z,-3.71
2022-12-08T06:46:59.563Z,-3.72
2022-12-08T06:49:26.175Z,-3.74
2022-12-08T06:51:52.885Z,-3.67
2022-12-08T06:54:19.377Z,-3.60
2022-12-08T06:56:45.961Z,-3.48
2022-12-08T06:59:12.540Z,-3.38
2022-12-08T07:01:39.160Z,-3.34
2022-12-08T07:04:05.782Z,-3.28
2022-12-08T07:06:32.281Z,-3.22
2022-12-08T07:08:58.722Z,-3.17
2022-12-08T07:11:25.231Z,-3.11
2022-12-08T07:13:51.778Z,-3.02
2022-12-08T07:16:20.720Z,-2.95
2022-12-08T07:18:47.523Z,-2.94
2022-12-08T07:21:17.356Z,-2.88
2022-12-08T07:23:46.842Z,-2.83
2022-12-08T07:26:13.945Z,-2.77
2022-12-08T07:28:41.987Z,-2.72
2022-12-08T07:31:20.170Z,-2.67
2022-12-08T07:33:47.493Z,-2.60
2022-12-08T07:36:14.068Z,-2.53
2022-12-08T07:38:40.655Z,-2.47
2022-12-08T07:41:12.273Z,-2.44
2022-12-08T07:43:39.037Z,-2.38
2022-12-08T07:46:07.438Z,-2.33
2022-12-08T07:48:34.003Z,-2.25
2022-12-08T07:51:02.423Z,-2.20
2022-12-08T07:53:29.030Z,-2.14
2022-12-08T07:55:57.756Z,-2.05
2022-12-08T07:58:24.705Z,-1.99
2022-12-08T08:00:52.121Z,-1.92
2022-12-08T08:03:18.797Z,-1.85
2022-12-08T08:05:47.437Z,-1.73
2022-12-08T08:08:18.464Z,-1.66
2022-12-08T08:10:46.317Z,-1.64
2022-12-08T08:13:13.643Z,-1.59
2022-12-08T08:15:49.580Z,-1.58
2022-12-08T08:18:17.862Z,-1.60
2022-12-08T08:20:44.334Z,-1.58
2022-12-08T08:23:11.000Z,-1.56
2022-12-08T08:25:39.755Z,-1.49
2022-12-08T08:28:06.282Z,-1.44
2022-12-08T08:30:32.765Z,-1.34
2022-12-08T08:33:00.449Z,-1.27
2022-12-08T08:35:27.001Z,-1.31
2022-12-08T08:38:00.029Z,-1.26
2022-12-08T08:40:26.695Z,-1.20
2022-12-08T08:42:53.180Z,-1.15
2022-12-08T08:45:19.890Z,-1.18
2022-12-08T08:47:46.373Z,-1.11
2022-12-08T08:50:15.090Z,-1.10
2022-12-08T08:52:43.617Z,-1.05
2022-12-08T08:55:10.214Z,-1.00
2022-12-08T08:57:37.016Z,-0.93
2022-12-08T09:00:05.675Z,-0.81
2022-12-08T09:02:32.571Z,-0.73
2022-12-08T09:04:59.749Z,-0.73
2022-12-08T09:07:26.500Z,-0.72
2022-12-08T09:09:55.763Z,-0.63
2022-12-08T09:12:26.491Z,-0.61
2022-12-08T09:14:54.736Z,-0.57
2022-12-08T09:17:23.744Z,-0.46
2022-12-08T09:19:50.235Z,-0.43
2022-12-08T09:22:16.913Z,-0.40
2022-12-08T09:24:43.409Z,-0.37
2022-12-08T09:27:09.993Z,-0.40
2022-12-08T09:29:41.110Z,-0.43
2022-12-08T09:32:07.653Z,-0.40
2022-12-08T09:34:34.181Z,-0.37
2022-12-08T09:37:07.009Z,-0.27
2022-12-08T09:39:33.485Z,-0.07
2022-12-08T09:42:04.496Z,-0.01
2022-12-08T09:44:42.740Z,0.07
2022-12-08T09:47:21.339Z,0.22
2022-12-08T09:49:56.674Z,0.26
2022-12-08T09:52:41.369Z,0.30
2022-12-08T09:55:26.556Z,0.49
2022-12-08T09:58:03.085Z,0.61
2022-12-08T10:00:31.401Z,0.73
2022-12-08T10:03:00.236Z,0.73
2022-12-08T10:05:30.373Z,0.96
2022-12-08T10:08:19.601Z,1.15
2022-12-08T10:10:54.372Z,1.28
2022-12-08T10:13:52.738Z,1.29
2022-12-08T10:16:36.905Z,1.39
2022-12-08T10:19:23.361Z,1.61
2022-12-08T10:21:50.670Z,1.99
2022-12-08T10:24:38.750Z,2.15
2022-12-08T10:27:08.218Z,2.47
2022-12-08T10:29:34.985Z,2.77
2022-12-08T10:32:01.879Z,3.45
2022-12-08T10:34:28.561Z,3.99
2022-12-08T10:37:00.734Z,3.98
2022-12-08T10:39:48.698Z,3.84
2022-12-08T10:42:22.725Z,4.15
2022-12-08T10:45:06.257Z,4.30
2022-12-08T10:47:37.576Z,5.16
2022-12-08T10:50:24.740Z,4.55
2022-12-08T10:53:10.802Z,4.47
2022-12-08T10:55:50.117Z,4.39
2022-12-08T10:58:40.410Z,4.20
2022-12-08T11:01:14.327Z,4.12
2022-12-08T11:03:50.076Z,4.26
2022-12-08T11:06:19.378Z,4.85
2022-12-08T11:08:50.538Z,4.61
2022-12-08T11:11:18.413Z,4.50
2022-12-08T11:13:47.679Z,4.44
2022-12-08T11:16:16.414Z,4.59
2022-12-08T11:18:48.070Z,4.80
2022-12-08T11:21:17.711Z,5.39
2022-12-08T11:23:48.522Z,6.15
2022-12-08T11:26:27.659Z,6.67
2022-12-08T11:28:56.872Z,6.97
2022-12-08T11:31:33.411Z,7.25
2022-12-08T11:34:01.997Z,7.39
2022-12-08T11:36:33.521Z,6.93
2022-12-08T11:39:05.280Z,6.67
2022-12-08T11:41:37.507Z,6.49
2022-12-08T11:44:31.669Z,6.05
2022-12-08T11:47:10.637Z,5.71
2022-12-08T11:49:41.506Z,5.76
2022-12-08T11:52:29.606Z,6.00
2022-12-08T11:55:20.341Z,7.09
2022-12-08T11:57:48.707Z,7.54
2022-12-08T12:00:17.053Z,7.98
2022-12-08T12:02:56.480Z,8.23
2022-12-08T12:06:05.815Z,8.54
2022-12-08T12:08:45.813Z,8.61
2022-12-08T12:11:48.124Z,8.32
2022-12-08T12:14:34.297Z,8.71
2022-12-08T12:17:27.469Z,8.74
2022-12-08T12:20:07.628Z,8.82
2022-12-08T12:22:35.729Z,8.72
2022-12-08T12:25:03.208Z,8.65
2022-12-08T12:27:31.449Z,8.22
2022-12-08T12:30:00.613Z,7.90
2022-12-08T12:32:43.260Z,7.95
2022-12-08T12:35:23.951Z,7.62
2022-12-08T12:37:59.044Z,7.14
2022-12-08T12:40:34.298Z,6.61
2022-12-08T12:43:02.524Z,5.96
2022-12-08T12:45:33.625Z,5.73
2022-12-08T12:48:00.219Z,5.63
2022-12-08T12:50:38.884Z,5.68
2022-12-08T12:53:26.617Z,5.36
2022-12-08T12:55:59.345Z,5.61
2022-12-08T12:58:29.264Z,5.71
2022-12-08T13:01:13.296Z,5.63
2022-12-08T13:04:10.691Z,5.69
2022-12-08T13:06:43.615Z,5.78
2022-12-08T13:09:32.912Z,5.82
2022-12-08T13:12:11.038Z,5.89
2022-12-08T13:14:50.586Z,6.21
2022-12-08T13:17:31.125Z,6.20
2022-12-08T13:20:01.316Z,6.23
2022-12-08T13:23:03.808Z,6.48
2022-12-08T13:25:39.714Z,6.40
2022-12-08T13:28:19.338Z,6.40
2022-12-08T13:30:49.405Z,6.66
2022-12-08T13:33:42.267Z,6.72
2022-12-08T13:36:24.008Z,6.57
2022-12-08T13:38:57.728Z,6.54
2022-12-08T13:41:38.704Z,6.70
2022-12-08T13:47:33.485Z,6.27
2022-12-08T13:58:44.398Z,5.72
2022-12-08T14:01:22.777Z,5.53
2022-12-08T14:04:31.003Z,5.44
2022-12-08T14:06:52.261Z,5.54
2022-12-08T14:09:29.218Z,5.59
2022-12-08T14:12:02.826Z,5.68
2022-12-08T14:15:02.039Z,5.52
2022-12-08T14:17:27.738Z,5.46
2022-12-08T14:20:06.577Z,5.37
2022-12-08T14:22:37.739Z,5.22
2022-12-08T14:25:06.722Z,5.14
2022-12-08T14:27:36.433Z,4.94
2022-12-08T14:30:11.518Z,4.80
2022-12-08T14:32:56.213Z,4.73
2022-12-08T14:35:35.360Z,4.34
2022-12-08T14:38:11.551Z,4.06
2022-12-08T14:40:50.397Z,4.03
2022-12-08T14:43:26.265Z,3.97
2022-12-08T14:45:59.268Z,3.71
2022-12-08T14:48:36.191Z,3.42
2022-12-08T14:51:18.802Z,3.39
2022-12-08T14:53:52.508Z,3.32
2022-12-08T14:56:26.297Z,3.17
2022-12-08T14:59:24.099Z,3.06
2022-12-08T15:01:59.022Z,2.87
2022-12-08T15:04:28.506Z,2.73
2022-12-08T15:07:05.080Z,2.62
2022-12-08T15:09:34.621Z,2.49
2022-12-08T15:12:13.370Z,2.35
2022-12-08T15:14:55.019Z,2.28
2022-12-08T15:17:43.047Z,2.19
2022-12-08T15:20:37.981Z,2.13
2022-12-08T15:23:11.400Z,2.04
2022-12-08T15:25:37.936Z,1.96
2022-12-08T15:28:04.601Z,1.86
2022-12-08T15:30:33.426Z,1.79
2022-12-08T15:32:59.927Z,1.66
2022-12-08T15:35:26.633Z,1.56
2022-12-08T15:37:53.344Z,1.43
2022-12-08T15:40:22.864Z,1.36
2022-12-08T15:42:49.669Z,1.27
2022-12-08T15:45:17.515Z,1.17
2022-12-08T15:47:44.860Z,1.10
2022-12-08T15:50:22.390Z,1.00
2022-12-08T15:52:51.197Z,0.90
2022-12-08T15:55:19.644Z,0.80
2022-12-08T16:00:52.616Z,0.58
2022-12-08T16:09:16.392Z,0.19
2022-12-08T16:12:08.830Z,0.10
2022-12-08T16:17:26.001Z,-0.10
2022-12-08T16:19:54.240Z,-0.21
2022-12-08T16:25:20.259Z,-0.57
2022-12-08T16:28:36.891Z,-0.60
2022-12-08T16:30:38.821Z,-0.57
2022-12-08T16:33:05.698Z,-0.68
2022-12-08T16:35:32.447Z,-0.71
2022-12-08T16:38:01.453Z,-0.80
2022-12-08T16:40:28.452Z,-0.81
2022-12-08T16:42:54.973Z,-0.87
2022-12-08T16:45:28.008Z,-0.94
2022-12-08T16:47:56.729Z,-1.07
2022-12-08T16:50:29.121Z,-1.10
2022-12-08T16:52:58.164Z,-1.34
2022-12-08T16:55:24.831Z,-1.46
2022-12-08T16:57:53.257Z,-1.46
2022-12-08T17:00:25.825Z,-1.46
2022-12-08T17:02:53.756Z,-1.51
2022-12-08T17:05:30.049Z,-1.54
2022-12-08T17:07:57.677Z,-1.59
2022-12-08T17:10:30.563Z,-1.62
2022-12-08T17:13:06.121Z,-1.62
2022-12-08T17:15:37.401Z,-1.61
2022-12-08T17:18:04.077Z,-1.67
2022-12-08T17:20:30.935Z,-1.60
2022-12-08T17:22:58.406Z,-1.63
2022-12-08T17:25:26.193Z,-1.63
2022-12-08T17:28:01.080Z,-1.66
2022-12-08T17:30:27.597Z,-1.67
2022-12-08T17:32:54.467Z,-1.71
2022-12-08T17:35:21.746Z,-1.67
2022-12-08T17:37:48.333Z,-1.72
2022-12-08T17:40:18.374Z,-1.80
2022-12-08T17:42:44.998Z,-1.85
2022-12-08T17:45:11.572Z,-1.92
2022-12-08T17:47:38.085Z,-1.97
2022-12-08T17:50:11.187Z,-2.02
2022-12-08T17:52:37.760Z,-2.07
2022-12-08T17:55:04.513Z,-2.12
2022-12-08T17:57:35.001Z,-2.17
2022-12-08T18:00:01.602Z,-2.23
2022-12-08T18:02:33.535Z,-2.31
2022-12-08T18:05:02.274Z,-2.34
2022-12-08T18:10:19.966Z,-2.31
2022-12-08T18:12:46.620Z,-2.37
2022-12-08T18:15:17.665Z,-2.34
2022-12-08T18:17:46.406Z,-2.26
2022-12-08T18:20:14.068Z,-2.22
2022-12-08T18:22:40.723Z,-2.16
2022-12-08T18:25:07.942Z,-2.17
2022-12-08T18:27:39.936Z,-2.19
2022-12-08T18:30:18.848Z,-2.08
2022-12-08T18:32:45.506Z,-2.08
2022-12-08T18:35:12.113Z,-2.09
2022-12-08T18:37:40.480Z,-2.05
2022-12-08T18:40:07.928Z,-2.10
2022-12-08T18:42:35.223Z,-2.07
2022-12-08T18:45:04.530Z,-2.12
2022-12-08T18:47:33.199Z,-2.09
2022-12-08T18:50:00.140Z,-2.09
2022-12-08T18:52:32.241Z,-2.13
2022-12-08T18:55:06.674Z,-2.18
2022-12-08T18:57:33.990Z,-2.23
2022-12-08T19:00:02.591Z,-2.24
2022-12-08T19:02:29.348Z,-2.22
2022-12-08T19:04:56.464Z,-2.30
2022-12-08T19:07:24.928Z,-2.23
2022-12-08T19:09:51.414Z,-2.18
2022-12-08T19:12:19.720Z,-2.22
2022-12-08T19:14:46.239Z,-2.26
2022-12-08T19:17:12.795Z,-2.32
2022-12-08T19:19:49.896Z,-2.35
2022-12-08T19:22:17.174Z,-2.34
2022-12-08T19:24:43.812Z,-2.32
2022-12-08T19:27:12.411Z,-2.32
2022-12-08T19:29:39.004Z,-2.29
2022-12-08T19:32:06.074Z,-2.25
2022-12-08T19:34:34.582Z,-2.23
2022-12-08T19:37:01.033Z,-2.25
2022-12-08T19:39:48.394Z,-2.23
2022-12-08T19:42:36.218Z,-2.26
2022-12-08T19:45:14.090Z,-2.27
2022-12-08T19:47:40.835Z,-2.22
2022-12-08T19:50:29.198Z,-2.26
2022-12-08T19:52:56.233Z,-2.22
2022-12-08T19:55:23.788Z,-2.19
2022-12-08T19:57:53.216Z,-2.14
2022-12-08T20:00:21.038Z,-2.11
2022-12-08T20:02:49.726Z,-2.10
2022-12-08T20:05:16.361Z,-2.15
2022-12-08T20:07:43.167Z,-2.20
2022-12-08T20:10:24.280Z,-2.19
2022-12-08T20:12:50.918Z,-2.14
2022-12-08T20:15:20.851Z,-2.06
2022-12-08T20:17:49.101Z,-2.09
2022-12-08T20:20:15.952Z,-2.13
2022-12-08T20:22:42.938Z,-2.11
2022-12-08T20:25:15.260Z,-2.08
2022-12-08T20:27:42.023Z,-2.07
2022-12-08T20:30:15.057Z,-2.11
2022-12-08T20:32:45.541Z,-2.09
2022-12-08T20:35:12.073Z,-2.13
2022-12-08T20:37:41.062Z,-2.15
2022-12-08T20:40:08.527Z,-2.12
2022-12-08T20:42:35.041Z,-2.18
2022-12-08T20:45:09.093Z,-2.19
2022-12-08T20:47:36.748Z,-2.15
2022-12-08T20:50:06.085Z,-2.15
2022-12-08T20:52:33.190Z,-2.19
2022-12-08T20:55:01.751Z,-2.18
2022-12-08T20:57:28.650Z,-2.14
2022-12-08T20:59:55.350Z,-2.13
2022-12-08T21:02:23.738Z,-2.12
2022-12-08T21:04:50.694Z,-2.11
2022-12-08T21:07:17.522Z,-2.10
2022-12-08T21:09:50.838Z,-1.98
2022-12-08T21:12:17.328Z,-2.01
2022-12-08T21:14:43.909Z,-2.00
2022-12-08T21:17:12.326Z,-1.99
2022-12-08T21:19:38.863Z,-1.96
2022-12-08T21:22:10.444Z,-1.85
2022-12-08T21:24:39.532Z,-1.83
2022-12-08T21:27:06.172Z,-1.90
2022-12-08T21:29:32.782Z,-1.88
2022-12-08T21:32:02.413Z,-1.87
2022-12-08T21:34:31.931Z,-1.88
2022-12-08T21:36:58.772Z,-1.85
2022-12-08T21:39:27.094Z,-1.87
2022-12-08T21:42:12.433Z,-1.90
2022-12-08T21:44:39.253Z,-1.88
2022-12-08T21:47:07.967Z,-1.86
2022-12-08T21:49:34.684Z,-1.86
2022-12-08T21:52:03.397Z,-1.83
2022-12-08T21:54:29.952Z,-1.86
2022-12-08T21:56:56.533Z,-1.89
2022-12-08T21:59:30.365Z,-1.87
2022-12-08T22:01:58.766Z,-1.92
2022-12-08T22:04:25.730Z,-1.93
2022-12-08T22:06:57.088Z,-1.94
2022-12-08T22:09:23.794Z,-1.96
2022-12-08T22:11:50.546Z,-1.97
2022-12-08T22:14:19.403Z,-1.96
2022-12-08T22:16:46.022Z,-1.96
2022-12-08T22:19:14.922Z,-1.96
2022-12-08T22:21:43.604Z,-1.97
2022-12-08T22:24:10.290Z,-1.95
2022-12-08T22:26:36.837Z,-1.95
2022-12-08T22:29:09.963Z,-1.96
2022-12-08T22:31:37.133Z,-1.94
2022-12-08T22:34:03.820Z,-1.92
2022-12-08T22:36:32.352Z,-1.92
2022-12-08T22:38:59.026Z,-1.91
2022-12-08T22:41:25.568Z,-1.91
2022-12-08T22:43:54.497Z,-1.90
2022-12-08T22:46:24.384Z,-1.86
2022-12-08T22:48:54.312Z,-1.85
2022-12-08T22:51:25.789Z,-1.80
2022-12-08T22:53:52.281Z,-1.76
2022-12-08T22:56:19.309Z,-1.71
2022-12-08T22:58:46.524Z,-1.60
2022-12-08T23:01:29.590Z,-1.56
2022-12-08T23:03:57.559Z,-1.49
2022-12-08T23:06:25.688Z,-1.49
2022-12-08T23:08:52.573Z,-1.48
2022-12-08T23:11:22.628Z,-1.43
2022-12-08T23:13:49.226Z,-1.40
2022-12-08T23:16:16.419Z,-1.35
2022-12-08T23:18:47.401Z,-1.32
2022-12-08T23:21:16.731Z,-1.33
2022-12-08T23:23:43.440Z,-1.32
2022-12-08T23:26:22.451Z,-1.30
2022-12-08T23:28:49.593Z,-1.27
2022-12-08T23:31:28.306Z,-1.23
2022-12-08T23:33:55.222Z,-1.22
2022-12-08T23:36:25.061Z,-1.19
2022-12-08T23:38:52.420Z,-1.19
2022-12-08T23:41:19.382Z,-1.18
2022-12-08T23:43:48.857Z,-1.17
2022-12-08T23:46:17.858Z,-1.15
2022-12-08T23:48:45.083Z,-1.15
2022-12-08T23:51:12.245Z,-1.09
2022-12-08T23:53:45.490Z,-0.99
2022-12-08T23:56:14.433Z,-0.98
2022-12-08T23:58:41.659Z,-0.95
